sensor_id;sensor_type;location;lat;lon;timestamp;pressure;altitude;pressure_sealevel;temperature;humidity
35910;BME280;22004;49.120;-0.200;2023-05-23T00:00:54;102051.44;;;14.97;74.65
35910;BME280;22004;49.120;-0.200;2023-05-23T00:03:20;102045.34;;;14.95;75.26
35910;BME280;22004;49.120;-0.200;2023-05-23T00:05:47;102040.72;;;15.12;73.37
35910;BME280;22004;49.120;-0.200;2023-05-23T00:08:12;102037.94;;;14.97;74.19
35910;BME280;22004;49.120;-0.200;2023-05-23T00:10:38;102051.06;;;15.00;74.36
35910;BME280;22004;49.120;-0.200;2023-05-23T00:13:03;102054.63;;;15.00;74.37
35910;BME280;22004;49.120;-0.200;2023-05-23T00:15:29;102056.28;;;15.02;74.22
35910;BME280;22004;49.120;-0.200;2023-05-23T00:17:55;102058.66;;;15.05;74.12
35910;BME280;22004;49.120;-0.200;2023-05-23T00:20:20;102050.03;;;15.01;74.45
35910;BME280;22004;49.120;-0.200;2023-05-23T00:22:47;102062.81;;;15.15;73.00
35910;BME280;22004;49.120;-0.200;2023-05-23T00:25:12;102056.78;;;15.05;73.76
35910;BME280;22004;49.120;-0.200;2023-05-23T00:27:37;102054.81;;;14.99;74.32
35910;BME280;22004;49.120;-0.200;2023-05-23T00:30:03;102057.91;;;14.88;75.69
35910;BME280;22004;49.120;-0.200;2023-05-23T00:32:29;102061.16;;;14.75;76.40
35910;BME280;22004;49.120;-0.200;2023-05-23T00:34:54;102056.81;;;14.66;77.25
35910;BME280;22004;49.120;-0.200;2023-05-23T00:37:22;102055.56;;;14.85;75.21
35910;BME280;22004;49.120;-0.200;2023-05-23T00:39:48;102058.25;;;15.16;73.12
35910;BME280;22004;49.120;-0.200;2023-05-23T00:42:13;102062.50;;;15.10;74.39
35910;BME280;22004;49.120;-0.200;2023-05-23T00:44:38;102064.28;;;14.95;74.45
35910;BME280;22004;49.120;-0.200;2023-05-23T00:47:04;102057.28;;;15.09;73.61
35910;BME280;22004;49.120;-0.200;2023-05-23T00:49:31;102058.66;;;15.05;73.56
35910;BME280;22004;49.120;-0.200;2023-05-23T00:51:57;102053.97;;;14.98;75.14
35910;BME280;22004;49.120;-0.200;2023-05-23T00:54:28;102049.63;;;14.89;75.24
35910;BME280;22004;49.120;-0.200;2023-05-23T00:56:55;102051.91;;;15.00;74.46
35910;BME280;22004;49.120;-0.200;2023-05-23T00:59:21;102049.22;;;15.00;74.35
35910;BME280;22004;49.120;-0.200;2023-05-23T01:01:49;102047.13;;;15.11;73.66
35910;BME280;22004;49.120;-0.200;2023-05-23T01:04:15;102048.81;;;15.12;73.55
35910;BME280;22004;49.120;-0.200;2023-05-23T01:06:40;102053.94;;;15.07;73.56
35910;BME280;22004;49.120;-0.200;2023-05-23T01:09:09;102051.22;;;15.07;74.51
35910;BME280;22004;49.120;-0.200;2023-05-23T01:12:16;102042.78;;;15.02;73.99
35910;BME280;22004;49.120;-0.200;2023-05-23T01:14:50;102042.91;;;15.08;73.38
35910;BME280;22004;49.120;-0.200;2023-05-23T01:17:51;102040.25;;;15.00;74.74
35910;BME280;22004;49.120;-0.200;2023-05-23T01:20:24;102037.13;;;15.11;73.81
35910;BME280;22004;49.120;-0.200;2023-05-23T01:23:05;102040.72;;;15.12;73.81
35910;BME280;22004;49.120;-0.200;2023-05-23T01:28:10;102033.81;;;15.01;74.21
35910;BME280;22004;49.120;-0.200;2023-05-23T01:30:38;102032.88;;;14.94;74.91
35910;BME280;22004;49.120;-0.200;2023-05-23T01:33:05;102029.44;;;14.69;76.30
35910;BME280;22004;49.120;-0.200;2023-05-23T01:35:32;102022.66;;;15.04;73.53
35910;BME280;22004;49.120;-0.200;2023-05-23T01:37:57;102019.59;;;15.07;73.87
35910;BME280;22004;49.120;-0.200;2023-05-23T01:40:24;102025.06;;;14.99;74.18
35910;BME280;22004;49.120;-0.200;2023-05-23T01:42:50;102029.25;;;15.02;73.91
35910;BME280;22004;49.120;-0.200;2023-05-23T01:45:16;102035.03;;;14.98;74.60
35910;BME280;22004;49.120;-0.200;2023-05-23T01:47:43;102031.19;;;14.93;74.69
35910;BME280;22004;49.120;-0.200;2023-05-23T01:50:09;102031.94;;;14.79;74.85
35910;BME280;22004;49.120;-0.200;2023-05-23T01:52:35;102038.78;;;14.58;75.79
35910;BME280;22004;49.120;-0.200;2023-05-23T01:55:02;102033.41;;;14.81;74.50
35910;BME280;22004;49.120;-0.200;2023-05-23T01:57:35;102043.63;;;14.71;73.88
35910;BME280;22004;49.120;-0.200;2023-05-23T02:00:01;102038.16;;;14.87;73.44
35910;BME280;22004;49.120;-0.200;2023-05-23T02:02:26;102030.19;;;14.86;73.63
35910;BME280;22004;49.120;-0.200;2023-05-23T02:04:52;102040.13;;;14.93;72.69
35910;BME280;22004;49.120;-0.200;2023-05-23T02:07:18;102043.72;;;14.86;73.17
35910;BME280;22004;49.120;-0.200;2023-05-23T02:09:47;102035.72;;;14.61;72.89
35910;BME280;22004;49.120;-0.200;2023-05-23T02:12:12;102042.44;;;14.73;72.71
35910;BME280;22004;49.120;-0.200;2023-05-23T02:14:38;102051.78;;;14.94;72.13
35910;BME280;22004;49.120;-0.200;2023-05-23T02:17:04;102051.03;;;14.77;72.41
35910;BME280;22004;49.120;-0.200;2023-05-23T02:19:29;102054.59;;;14.78;71.87
35910;BME280;22004;49.120;-0.200;2023-05-23T02:21:54;102054.75;;;14.76;71.52
35910;BME280;22004;49.120;-0.200;2023-05-23T02:24:20;102057.00;;;14.64;72.06
35910;BME280;22004;49.120;-0.200;2023-05-23T02:26:45;102061.66;;;14.79;71.50
35910;BME280;22004;49.120;-0.200;2023-05-23T02:29:10;102060.50;;;14.73;70.17
35910;BME280;22004;49.120;-0.200;2023-05-23T02:31:36;102060.53;;;14.65;72.36
35910;BME280;22004;49.120;-0.200;2023-05-23T02:34:01;102059.81;;;14.79;70.79
35910;BME280;22004;49.120;-0.200;2023-05-23T02:36:26;102070.09;;;14.84;70.97
35910;BME280;22004;49.120;-0.200;2023-05-23T02:38:52;102057.13;;;14.71;70.04
35910;BME280;22004;49.120;-0.200;2023-05-23T02:41:17;102066.97;;;14.64;70.55
35910;BME280;22004;49.120;-0.200;2023-05-23T02:43:45;102057.13;;;14.71;69.73
35910;BME280;22004;49.120;-0.200;2023-05-23T02:46:11;102056.44;;;14.77;70.38
35910;BME280;22004;49.120;-0.200;2023-05-23T02:48:37;102061.28;;;14.82;71.50
35910;BME280;22004;49.120;-0.200;2023-05-23T02:51:03;102060.84;;;14.78;71.77
35910;BME280;22004;49.120;-0.200;2023-05-23T02:53:28;102056.28;;;14.70;71.05
35910;BME280;22004;49.120;-0.200;2023-05-23T02:55:53;102057.91;;;14.48;71.15
35910;BME280;22004;49.120;-0.200;2023-05-23T02:58:19;102049.53;;;14.66;71.00
35910;BME280;22004;49.120;-0.200;2023-05-23T03:00:44;102053.25;;;14.73;70.96
35910;BME280;22004;49.120;-0.200;2023-05-23T03:03:10;102050.75;;;14.64;71.47
35910;BME280;22004;49.120;-0.200;2023-05-23T03:05:36;102056.16;;;14.64;71.55
35910;BME280;22004;49.120;-0.200;2023-05-23T03:08:01;102067.31;;;14.61;72.40
35910;BME280;22004;49.120;-0.200;2023-05-23T03:10:27;102066.84;;;14.41;72.59
35910;BME280;22004;49.120;-0.200;2023-05-23T03:12:52;102057.03;;;14.56;72.11
35910;BME280;22004;49.120;-0.200;2023-05-23T03:15:17;102058.88;;;14.56;72.29
35910;BME280;22004;49.120;-0.200;2023-05-23T03:17:43;102055.72;;;14.52;71.76
35910;BME280;22004;49.120;-0.200;2023-05-23T03:20:09;102058.06;;;14.47;72.09
35910;BME280;22004;49.120;-0.200;2023-05-23T03:22:35;102058.97;;;14.23;71.58
35910;BME280;22004;49.120;-0.200;2023-05-23T03:25:00;102058.56;;;14.51;71.78
35910;BME280;22004;49.120;-0.200;2023-05-23T03:27:26;102066.53;;;14.52;71.04
35910;BME280;22004;49.120;-0.200;2023-05-23T03:29:51;102055.00;;;14.42;71.53
35910;BME280;22004;49.120;-0.200;2023-05-23T03:32:16;102063.09;;;14.58;71.57
35910;BME280;22004;49.120;-0.200;2023-05-23T03:34:41;102061.63;;;14.47;70.75
35910;BME280;22004;49.120;-0.200;2023-05-23T03:37:07;102065.63;;;14.60;71.79
35910;BME280;22004;49.120;-0.200;2023-05-23T03:39:32;102060.59;;;14.48;71.47
35910;BME280;22004;49.120;-0.200;2023-05-23T03:41:57;102055.84;;;14.59;71.60
35910;BME280;22004;49.120;-0.200;2023-05-23T03:44:23;102069.75;;;14.47;72.08
35910;BME280;22004;49.120;-0.200;2023-05-23T03:46:48;102060.56;;;14.57;72.39
35910;BME280;22004;49.120;-0.200;2023-05-23T03:49:13;102060.59;;;14.40;72.05
35910;BME280;22004;49.120;-0.200;2023-05-23T03:51:39;102062.78;;;14.45;71.50
35910;BME280;22004;49.120;-0.200;2023-05-23T03:54:04;102054.66;;;14.45;71.91
35910;BME280;22004;49.120;-0.200;2023-05-23T03:56:30;102059.63;;;14.25;71.27
35910;BME280;22004;49.120;-0.200;2023-05-23T03:58:55;102050.81;;;14.31;71.97
35910;BME280;22004;49.120;-0.200;2023-05-23T04:01:21;102063.00;;;14.27;71.45
35910;BME280;22004;49.120;-0.200;2023-05-23T04:03:48;102061.09;;;14.44;71.12
35910;BME280;22004;49.120;-0.200;2023-05-23T04:06:13;102057.25;;;14.22;70.97
35910;BME280;22004;49.120;-0.200;2023-05-23T04:08:39;102056.22;;;14.39;72.08
35910;BME280;22004;49.120;-0.200;2023-05-23T04:11:06;102062.66;;;14.30;71.73
35910;BME280;22004;49.120;-0.200;2023-05-23T04:13:31;102067.53;;;14.43;71.59
35910;BME280;22004;49.120;-0.200;2023-05-23T04:15:59;102067.03;;;14.47;71.58
35910;BME280;22004;49.120;-0.200;2023-05-23T04:18:26;102070.56;;;14.40;71.21
35910;BME280;22004;49.120;-0.200;2023-05-23T04:20:52;102062.16;;;14.27;71.81
35910;BME280;22004;49.120;-0.200;2023-05-23T04:23:18;102073.59;;;14.45;71.28
35910;BME280;22004;49.120;-0.200;2023-05-23T04:25:43;102073.59;;;14.45;72.32
35910;BME280;22004;49.120;-0.200;2023-05-23T04:28:10;102076.63;;;14.42;71.91
35910;BME280;22004;49.120;-0.200;2023-05-23T04:30:35;102073.09;;;14.58;72.11
35910;BME280;22004;49.120;-0.200;2023-05-23T04:33:01;102070.72;;;14.55;72.32
35910;BME280;22004;49.120;-0.200;2023-05-23T04:35:26;102079.19;;;14.35;71.47
35910;BME280;22004;49.120;-0.200;2023-05-23T04:37:58;102074.84;;;14.18;72.83
35910;BME280;22004;49.120;-0.200;2023-05-23T04:40:23;102076.31;;;14.53;71.89
35910;BME280;22004;49.120;-0.200;2023-05-23T04:42:49;102079.25;;;14.03;71.99
35910;BME280;22004;49.120;-0.200;2023-05-23T04:45:18;102081.19;;;14.58;72.05
35910;BME280;22004;49.120;-0.200;2023-05-23T04:47:47;102083.56;;;14.44;72.16
35910;BME280;22004;49.120;-0.200;2023-05-23T04:50:12;102082.84;;;14.67;71.96
35910;BME280;22004;49.120;-0.200;2023-05-23T04:52:41;102087.13;;;14.53;72.33
35910;BME280;22004;49.120;-0.200;2023-05-23T04:55:07;102083.50;;;14.69;71.72
35910;BME280;22004;49.120;-0.200;2023-05-23T04:57:33;102088.41;;;14.65;71.91
35910;BME280;22004;49.120;-0.200;2023-05-23T04:59:59;102091.47;;;14.46;72.32
35910;BME280;22004;49.120;-0.200;2023-05-23T05:02:25;102097.88;;;14.61;72.23
35910;BME280;22004;49.120;-0.200;2023-05-23T05:04:51;102101.50;;;14.29;72.85
35910;BME280;22004;49.120;-0.200;2023-05-23T05:07:17;102102.84;;;14.33;72.94
35910;BME280;22004;49.120;-0.200;2023-05-23T05:09:42;102108.00;;;14.67;71.91
35910;BME280;22004;49.120;-0.200;2023-05-23T05:12:07;102115.31;;;14.42;72.77
35910;BME280;22004;49.120;-0.200;2023-05-23T05:14:33;102114.13;;;14.37;73.19
35910;BME280;22004;49.120;-0.200;2023-05-23T05:16:58;102121.53;;;14.59;72.57
35910;BME280;22004;49.120;-0.200;2023-05-23T05:19:23;102135.56;;;14.55;72.57
35910;BME280;22004;49.120;-0.200;2023-05-23T05:21:49;102131.03;;;14.39;73.26
35910;BME280;22004;49.120;-0.200;2023-05-23T05:24:15;102135.06;;;14.51;72.97
35910;BME280;22004;49.120;-0.200;2023-05-23T05:26:41;102140.47;;;14.59;72.98
35910;BME280;22004;49.120;-0.200;2023-05-23T05:29:06;102134.72;;;14.46;73.37
35910;BME280;22004;49.120;-0.200;2023-05-23T05:31:32;102139.25;;;14.62;72.83
35910;BME280;22004;49.120;-0.200;2023-05-23T05:33:57;102136.03;;;14.66;72.73
35910;BME280;22004;49.120;-0.200;2023-05-23T05:36:23;102133.19;;;14.68;72.65
35910;BME280;22004;49.120;-0.200;2023-05-23T05:38:48;102146.25;;;14.48;73.40
35910;BME280;22004;49.120;-0.200;2023-05-23T05:41:13;102142.84;;;14.54;73.43
35910;BME280;22004;49.120;-0.200;2023-05-23T05:43:38;102140.66;;;14.58;73.05
35910;BME280;22004;49.120;-0.200;2023-05-23T05:46:04;102145.69;;;14.61;72.95
35910;BME280;22004;49.120;-0.200;2023-05-23T05:48:29;102146.56;;;14.53;73.24
35910;BME280;22004;49.120;-0.200;2023-05-23T05:50:55;102153.81;;;14.44;73.54
35910;BME280;22004;49.120;-0.200;2023-05-23T05:53:20;102154.44;;;14.71;72.69
35910;BME280;22004;49.120;-0.200;2023-05-23T05:55:45;102151.59;;;14.64;72.67
35910;BME280;22004;49.120;-0.200;2023-05-23T05:58:11;102157.69;;;14.42;73.71
35910;BME280;22004;49.120;-0.200;2023-05-23T06:00:36;102159.03;;;14.46;73.71
35910;BME280;22004;49.120;-0.200;2023-05-23T06:03:09;102157.69;;;14.42;73.68
35910;BME280;22004;49.120;-0.200;2023-05-23T06:05:36;102158.53;;;14.51;73.31
35910;BME280;22004;49.120;-0.200;2023-05-23T06:08:04;102161.75;;;14.62;73.34
35910;BME280;22004;49.120;-0.200;2023-05-23T06:10:30;102168.66;;;14.40;74.20
35910;BME280;22004;49.120;-0.200;2023-05-23T06:12:57;102164.09;;;14.41;73.97
35910;BME280;22004;49.120;-0.200;2023-05-23T06:15:22;102164.94;;;14.41;73.60
35910;BME280;22004;49.120;-0.200;2023-05-23T06:17:48;102161.63;;;14.47;73.43
35910;BME280;22004;49.120;-0.200;2023-05-23T06:20:13;102162.28;;;14.50;73.31
35910;BME280;22004;49.120;-0.200;2023-05-23T06:22:38;102174.41;;;14.62;73.60
35910;BME280;22004;49.120;-0.200;2023-05-23T06:25:05;102179.81;;;14.45;73.77
35910;BME280;22004;49.120;-0.200;2023-05-23T06:27:31;102180.16;;;14.42;73.71
35910;BME280;22004;49.120;-0.200;2023-05-23T06:29:56;102175.09;;;14.15;75.35
35910;BME280;22004;49.120;-0.200;2023-05-23T06:32:21;102182.16;;;14.65;73.33
35910;BME280;22004;49.120;-0.200;2023-05-23T06:34:47;102182.50;;;14.62;73.52
35910;BME280;22004;49.120;-0.200;2023-05-23T06:37:12;102191.97;;;14.25;74.75
35910;BME280;22004;49.120;-0.200;2023-05-23T06:39:37;102187.59;;;14.40;74.24
35910;BME280;22004;49.120;-0.200;2023-05-23T06:42:03;102185.38;;;14.60;73.49
35910;BME280;22004;49.120;-0.200;2023-05-23T06:44:29;102193.53;;;14.52;74.07
35910;BME280;22004;49.120;-0.200;2023-05-23T06:46:54;102187.94;;;14.37;74.46
35910;BME280;22004;49.120;-0.200;2023-05-23T06:49:22;102195.88;;;14.47;73.53
35910;BME280;22004;49.120;-0.200;2023-05-23T06:51:48;102185.75;;;14.25;74.31
35910;BME280;22004;49.120;-0.200;2023-05-23T06:54:14;102193.34;;;14.29;73.92
35910;BME280;22004;49.120;-0.200;2023-05-23T06:56:39;102201.94;;;14.25;73.91
35910;BME280;22004;49.120;-0.200;2023-05-23T06:59:04;102194.34;;;14.44;73.47
35910;BME280;22004;49.120;-0.200;2023-05-23T07:01:30;102190.47;;;14.31;73.69
35910;BME280;22004;49.120;-0.200;2023-05-23T07:03:55;102199.41;;;14.39;73.58
35910;BME280;22004;49.120;-0.200;2023-05-23T07:06:20;102204.63;;;14.65;73.01
35910;BME280;22004;49.120;-0.200;2023-05-23T07:08:46;102204.84;;;14.47;73.40
35910;BME280;22004;49.120;-0.200;2023-05-23T07:11:11;102208.72;;;14.29;73.91
35910;BME280;22004;49.120;-0.200;2023-05-23T07:13:37;102211.38;;;14.37;73.92
35910;BME280;22004;49.120;-0.200;2023-05-23T07:16:02;102208.19;;;14.41;73.92
35910;BME280;22004;49.120;-0.200;2023-05-23T07:18:27;102209.38;;;14.63;72.97
35910;BME280;22004;49.120;-0.200;2023-05-23T07:20:53;102219.81;;;14.42;73.61
35910;BME280;22004;49.120;-0.200;2023-05-23T07:23:18;102214.28;;;14.27;73.96
35910;BME280;22004;49.120;-0.200;2023-05-23T07:25:44;102210.03;;;14.41;73.68
35910;BME280;22004;49.120;-0.200;2023-05-23T07:28:11;102204.81;;;14.64;73.09
35910;BME280;22004;49.120;-0.200;2023-05-23T07:30:36;102204.56;;;14.90;72.17
35910;BME280;22004;49.120;-0.200;2023-05-23T07:33:02;102206.88;;;15.09;72.31
35910;BME280;22004;49.120;-0.200;2023-05-23T07:35:27;102206.56;;;15.12;71.97
35910;BME280;22004;49.120;-0.200;2023-05-23T07:37:53;102204.06;;;14.94;72.19
35910;BME280;22004;49.120;-0.200;2023-05-23T07:40:19;102207.66;;;14.79;72.83
35910;BME280;22004;49.120;-0.200;2023-05-23T07:42:44;102204.25;;;14.85;72.36
35910;BME280;22004;49.120;-0.200;2023-05-23T07:45:10;102214.03;;;14.94;72.09
35910;BME280;22004;49.120;-0.200;2023-05-23T07:47:35;102217.25;;;14.89;72.32
35910;BME280;22004;49.120;-0.200;2023-05-23T07:50:01;102215.53;;;14.96;72.07
35910;BME280;22004;49.120;-0.200;2023-05-23T07:52:28;102209.19;;;14.65;73.14
35910;BME280;22004;49.120;-0.200;2023-05-23T07:54:54;102212.88;;;14.80;72.90
35910;BME280;22004;49.120;-0.200;2023-05-23T07:57:20;102210.34;;;14.87;72.23
35910;BME280;22004;49.120;-0.200;2023-05-23T07:59:45;102217.16;;;15.22;71.14
35910;BME280;22004;49.120;-0.200;2023-05-23T08:02:11;102212.94;;;15.19;71.40
35910;BME280;22004;49.120;-0.200;2023-05-23T08:04:36;102216.69;;;15.10;71.96
35910;BME280;22004;49.120;-0.200;2023-05-23T08:07:01;102213.97;;;15.10;71.93
35910;BME280;22004;49.120;-0.200;2023-05-23T08:09:29;102214.94;;;14.78;72.37
35910;BME280;22004;49.120;-0.200;2023-05-23T08:11:54;102220.28;;;14.94;72.64
35910;BME280;22004;49.120;-0.200;2023-05-23T08:14:20;102222.97;;;15.03;72.68
35910;BME280;22004;49.120;-0.200;2023-05-23T08:16:46;102224.47;;;15.13;72.88
35910;BME280;22004;49.120;-0.200;2023-05-23T08:19:12;102222.72;;;15.20;71.56
35910;BME280;22004;49.120;-0.200;2023-05-23T08:21:37;102218.75;;;15.39;71.07
35910;BME280;22004;49.120;-0.200;2023-05-23T08:24:03;102219.25;;;15.43;71.51
35910;BME280;22004;49.120;-0.200;2023-05-23T08:26:28;102221.38;;;15.16;71.58
35910;BME280;22004;49.120;-0.200;2023-05-23T08:28:59;102232.16;;;15.33;70.83
35910;BME280;22004;49.120;-0.200;2023-05-23T08:31:26;102227.22;;;16.07;69.36
35910;BME280;22004;49.120;-0.200;2023-05-23T08:33:52;102231.56;;;16.68;67.09
35910;BME280;22004;49.120;-0.200;2023-05-23T08:36:17;102237.50;;;16.72;66.44
35910;BME280;22004;49.120;-0.200;2023-05-23T08:38:43;102234.00;;;16.02;68.32
35910;BME280;22004;49.120;-0.200;2023-05-23T08:41:15;102243.19;;;15.62;69.72
35910;BME280;22004;49.120;-0.200;2023-05-23T08:43:43;102237.91;;;15.77;69.13
35910;BME280;22004;49.120;-0.200;2023-05-23T08:46:08;102240.56;;;16.08;68.43
35910;BME280;22004;49.120;-0.200;2023-05-23T08:48:37;102240.06;;;16.05;68.04
35910;BME280;22004;49.120;-0.200;2023-05-23T08:51:03;102249.94;;;16.43;67.04
35910;BME280;22004;49.120;-0.200;2023-05-23T08:53:30;102242.41;;;16.31;67.28
35910;BME280;22004;49.120;-0.200;2023-05-23T08:55:57;102240.41;;;16.47;66.33
35910;BME280;22004;49.120;-0.200;2023-05-23T08:58:28;102237.41;;;17.39;65.13
35910;BME280;22004;49.120;-0.200;2023-05-23T09:00:54;102242.50;;;16.22;66.67
35910;BME280;22004;49.120;-0.200;2023-05-23T09:03:20;102240.03;;;17.33;64.13
35910;BME280;22004;49.120;-0.200;2023-05-23T09:05:46;102239.41;;;17.81;62.70
35910;BME280;22004;49.120;-0.200;2023-05-23T09:08:12;102239.81;;;18.43;61.04
35910;BME280;22004;49.120;-0.200;2023-05-23T09:10:37;102234.25;;;17.72;62.21
35910;BME280;22004;49.120;-0.200;2023-05-23T09:13:04;102233.09;;;18.67;60.42
35910;BME280;22004;49.120;-0.200;2023-05-23T09:15:29;102222.22;;;18.67;60.37
35910;BME280;22004;49.120;-0.200;2023-05-23T09:17:59;102229.19;;;18.48;59.67
35910;BME280;22004;49.120;-0.200;2023-05-23T09:20:29;102225.81;;;18.24;60.03
35910;BME280;22004;49.120;-0.200;2023-05-23T09:22:55;102224.47;;;18.63;59.09
35910;BME280;22004;49.120;-0.200;2023-05-23T09:25:20;102226.06;;;18.72;57.58
35910;BME280;22004;49.120;-0.200;2023-05-23T09:27:46;102231.63;;;18.92;57.86
35910;BME280;22004;49.120;-0.200;2023-05-23T09:30:12;102227.09;;;18.71;57.08
35910;BME280;22004;49.120;-0.200;2023-05-23T09:32:38;102218.16;;;18.56;58.58
35910;BME280;22004;49.120;-0.200;2023-05-23T09:35:05;102222.13;;;19.09;57.33
35910;BME280;22004;49.120;-0.200;2023-05-23T09:37:33;102222.47;;;19.41;56.32
35910;BME280;22004;49.120;-0.200;2023-05-23T09:40:00;102220.88;;;18.84;58.19
35910;BME280;22004;49.120;-0.200;2023-05-23T09:42:31;102218.00;;;18.92;57.62
35910;BME280;22004;49.120;-0.200;2023-05-23T09:45:00;102229.19;;;19.52;57.96
35910;BME280;22004;49.120;-0.200;2023-05-23T09:47:26;102238.59;;;19.43;57.29
35910;BME280;22004;49.120;-0.200;2023-05-23T09:49:51;102230.16;;;19.31;57.01
35910;BME280;22004;49.120;-0.200;2023-05-23T09:52:17;102217.50;;;19.10;56.95
35910;BME280;22004;49.120;-0.200;2023-05-23T09:54:45;102215.56;;;19.04;57.16
35910;BME280;22004;49.120;-0.200;2023-05-23T09:57:11;102224.38;;;19.47;55.81
35910;BME280;22004;49.120;-0.200;2023-05-23T09:59:39;102224.59;;;19.59;57.43
35910;BME280;22004;49.120;-0.200;2023-05-23T10:02:12;102234.56;;;19.32;54.18
35910;BME280;22004;49.120;-0.200;2023-05-23T10:04:41;102217.91;;;18.79;57.53
35910;BME280;22004;49.120;-0.200;2023-05-23T10:07:19;102220.75;;;19.33;56.63
35910;BME280;22004;49.120;-0.200;2023-05-23T10:09:54;102216.75;;;19.29;56.31
35910;BME280;22004;49.120;-0.200;2023-05-23T10:12:41;102212.16;;;19.30;54.99
35910;BME280;22004;49.120;-0.200;2023-05-23T10:15:10;102211.34;;;19.43;55.63
35910;BME280;22004;49.120;-0.200;2023-05-23T10:20:35;102218.22;;;19.32;55.64
35910;BME280;22004;49.120;-0.200;2023-05-23T10:23:01;102226.22;;;19.40;55.79
35910;BME280;22004;49.120;-0.200;2023-05-23T10:25:28;102217.56;;;19.65;54.97
35910;BME280;22004;49.120;-0.200;2023-05-23T10:27:57;102222.22;;;19.36;55.04
35910;BME280;22004;49.120;-0.200;2023-05-23T10:30:25;102212.59;;;19.95;55.34
35910;BME280;22004;49.120;-0.200;2023-05-23T10:32:52;102212.84;;;20.20;54.28
35910;BME280;22004;49.120;-0.200;2023-05-23T10:35:31;102221.63;;;20.08;54.14
35910;BME280;22004;49.120;-0.200;2023-05-23T10:38:41;102214.88;;;19.91;53.96
35910;BME280;22004;49.120;-0.200;2023-05-23T10:41:11;102213.97;;;19.64;54.14
35910;BME280;22004;49.120;-0.200;2023-05-23T10:44:06;102227.31;;;19.59;54.23
35910;BME280;22004;49.120;-0.200;2023-05-23T10:46:53;102226.34;;;19.60;54.62
35910;BME280;22004;49.120;-0.200;2023-05-23T10:49:20;102232.47;;;19.75;54.84
35910;BME280;22004;49.120;-0.200;2023-05-23T10:51:49;102223.06;;;19.36;54.63
35910;BME280;22004;49.120;-0.200;2023-05-23T10:54:17;102230.00;;;20.13;55.59
35910;BME280;22004;49.120;-0.200;2023-05-23T10:56:44;102241.84;;;19.59;55.10
35910;BME280;22004;49.120;-0.200;2023-05-23T10:59:19;102226.63;;;19.98;55.11
35910;BME280;22004;49.120;-0.200;2023-05-23T11:01:45;102229.81;;;19.54;55.48
35910;BME280;22004;49.120;-0.200;2023-05-23T11:04:10;102226.56;;;19.72;55.88
35910;BME280;22004;49.120;-0.200;2023-05-23T11:06:43;102228.56;;;20.31;56.25
35910;BME280;22004;49.120;-0.200;2023-05-23T11:12:00;102231.63;;;19.75;55.61
35910;BME280;22004;49.120;-0.200;2023-05-23T11:19:37;102219.56;;;19.49;56.36
35910;BME280;22004;49.120;-0.200;2023-05-23T11:22:03;102235.25;;;19.41;57.18
35910;BME280;22004;49.120;-0.200;2023-05-23T11:24:50;102228.56;;;19.50;56.72
35910;BME280;22004;49.120;-0.200;2023-05-23T11:27:24;102236.53;;;18.75;58.08
35910;BME280;22004;49.120;-0.200;2023-05-23T11:30:08;102224.44;;;18.84;58.55
35910;BME280;22004;49.120;-0.200;2023-05-23T11:32:34;102226.66;;;18.46;60.14
35910;BME280;22004;49.120;-0.200;2023-05-23T11:35:01;102238.16;;;18.48;59.68
35910;BME280;22004;49.120;-0.200;2023-05-23T11:37:28;102228.50;;;18.67;57.66
35910;BME280;22004;49.120;-0.200;2023-05-23T11:39:54;102226.09;;;18.79;57.57
35910;BME280;22004;49.120;-0.200;2023-05-23T11:42:19;102227.13;;;19.13;57.89
35910;BME280;22004;49.120;-0.200;2023-05-23T11:44:48;102234.03;;;19.56;58.18
35910;BME280;22004;49.120;-0.200;2023-05-23T11:47:13;102236.59;;;19.17;59.33
35910;BME280;22004;49.120;-0.200;2023-05-23T11:49:39;102230.75;;;19.20;58.78
35910;BME280;22004;49.120;-0.200;2023-05-23T11:52:05;102232.69;;;18.98;59.39
35910;BME280;22004;49.120;-0.200;2023-05-23T11:54:31;102234.44;;;19.05;57.43
35910;BME280;22004;49.120;-0.200;2023-05-23T11:56:57;102228.16;;;19.05;57.58
35910;BME280;22004;49.120;-0.200;2023-05-23T11:59:24;102224.19;;;19.07;58.21
35910;BME280;22004;49.120;-0.200;2023-05-23T12:01:53;102212.22;;;19.02;59.24
35910;BME280;22004;49.120;-0.200;2023-05-23T12:04:19;102221.13;;;18.89;58.38
35910;BME280;22004;49.120;-0.200;2023-05-23T12:06:48;102216.72;;;18.60;58.72
35910;BME280;22004;49.120;-0.200;2023-05-23T12:09:14;102220.47;;;18.09;58.90
35910;BME280;22004;49.120;-0.200;2023-05-23T12:11:41;102217.53;;;17.90;59.93
35910;BME280;22004;49.120;-0.200;2023-05-23T12:14:07;102216.50;;;18.33;59.91
35910;BME280;22004;49.120;-0.200;2023-05-23T12:16:33;102233.03;;;18.11;59.75
35910;BME280;22004;49.120;-0.200;2023-05-23T12:19:03;102222.09;;;18.75;58.56
35910;BME280;22004;49.120;-0.200;2023-05-23T12:21:48;102221.00;;;18.69;58.44
35910;BME280;22004;49.120;-0.200;2023-05-23T12:24:21;102219.59;;;18.52;60.03
35910;BME280;22004;49.120;-0.200;2023-05-23T12:26:51;102222.09;;;18.25;59.56
35910;BME280;22004;49.120;-0.200;2023-05-23T12:29:18;102231.13;;;18.32;59.29
35910;BME280;22004;49.120;-0.200;2023-05-23T12:31:47;102219.47;;;18.39;59.11
35910;BME280;22004;49.120;-0.200;2023-05-23T12:34:12;102215.28;;;18.36;59.81
35910;BME280;22004;49.120;-0.200;2023-05-23T12:36:38;102211.22;;;17.82;61.05
35910;BME280;22004;49.120;-0.200;2023-05-23T12:39:04;102220.66;;;18.08;61.13
35910;BME280;22004;49.120;-0.200;2023-05-23T12:41:31;102217.81;;;17.95;61.43
35910;BME280;22004;49.120;-0.200;2023-05-23T12:43:57;102218.06;;;18.00;61.00
35910;BME280;22004;49.120;-0.200;2023-05-23T12:46:24;102220.09;;;18.13;60.51
35910;BME280;22004;49.120;-0.200;2023-05-23T12:48:49;102218.66;;;18.66;60.25
35910;BME280;22004;49.120;-0.200;2023-05-23T12:51:15;102219.00;;;18.84;59.61
35910;BME280;22004;49.120;-0.200;2023-05-23T12:53:40;102218.88;;;18.15;60.04